Falcon, Texas
Current Conditions -  °F | °C
As of 7:15 AM on Tuesday 21 Oct 2014 (Local Time) from KAPY Reporting Station
Haze Haze  
Wind Chill: 69°   Ceiling: Unl
Heat Index: 69°   Visibility: 5mi
Dew Point: 68°   Wind: 0mph
Humidity: 99%   Direction: NA
Pressure: 29.97"   Gusts: NA
Location:  26.5818°N, 98.985°W
Report Text: KAPY 211215Z AUTO 00000KT 5SM BR SCT070 20/20 A2997 RMK AO2 T02030201
Loading
Personal Weather Stations






























Interactive Weather Map
Tropical Storm Tracking
New forecast layout! Learn more

10-Day Weather Forecast

Advertisements
Track Severe Weather on mobile